Airfield :







YOU CAN JOIN US ON...

 
LOGIN :

Register | Disclaimer

   EN    FR    IT 

 









Legend :    VFR   Marginal VFR   IFR   Intensive IFR   Very Intensive IFR
Visi :
Ceiling :
>= 8 km
>= 3000ft
5 to 8 km
1000 to 3000 ft
1500m to 5 km
500 to 1000 ft
800 to 1500m
200 to 500 ft
< 800m
< 200 ft
Symbols :   Thunderstorms  Fog  Heavy snow  Heavy precipitations  Wind > 20 kt






- Airport Elevation : 488 ft
- IATA code : EEN


KEEN - Dillant Hopkins

CURRENT METAR :
  • 040456Z AUTO 00000KT 10SM FEW120 M02/M03 A3005 RMK AO2 SLP184 T10171033 400831056 FZRANO PNO $

EXPIRED METARs :
  • 040356Z AUTO 00000KT 10SM BKN110 01/M03 A3006 RMK AO2 SLP187 T00061028 FZRANO PNO $
  • 040256Z AUTO 00000KT 10SM BKN110 02/M03 A3005 RMK AO2 SLP185 6//// T00171033 58001 FZRANO PNO $

TAF N/A
KZBW FIR / North America



MET'MAP, your aeronautical weather chart ! - Copyright ORBIFLY December 2007 - Disclaimer

ORBIFLY MET'MAP TEAM :

Programming & Development : Alexandra Zaïnal
Concept & original design : Baudouin d'Aumeries
Assistance for programming : Marc-Olivier Méhu
Technical & hardware support : Manuel Goepfert

Contact : metmap@orbifly.com




SOURCES & CREDITS :

   NOAA